Buoy 62910

sailwx.info

Track history (hours):
 
Tides and Currents Weather Stations Pressure Air Temp Water Temp Dewpoint Dewpoint Depression Visibility Wind Speed Wind Dir Waves Ship Positions

Drifting buoy 62910

Last reported at 2014-Jul-23 08:49 UTC. Time now 2014-Jul-23 09:54 UTC.
Position N 37°48' E 004°53'.

Water temperature 25.8 ° C

Date/timePositionNaut miles runAvg speedWind from/ knotsBaromVisibWave heightAir tempDewpointWater temp
2014-Jul-23 08:49N 37°48' E 004°53'0 0.0 25.8
2014-Jul-23 07:54N 37°48' E 004°53'0 0.0 25.7
2014-Jul-23 06:45N 37°48' E 004°53'0 0.0 25.7
2014-Jul-23 06:40N 37°48' E 004°53'0 1.7 25.7
2014-Jul-23 06:29N 37°48' E 004°53'1 2.0 25.7
2014-Jul-23 06:05N 37°49' E 004°53'0 0.0 25.7
2014-Jul-23 05:03N 37°49' E 004°53'0 0.7 25.7
2014-Jul-23 04:47N 37°49' E 004°53'0 0.9 25.7
2014-Jul-23 04:22N 37°49' E 004°53'0 0.1 25.8
2014-Jul-23 03:35N 37°49' E 004°53'0 0.3 25.8
2014-Jul-23 02:47N 37°49' E 004°53'1 8.4 25.8
2014-Jul-23 02:43N 37°50' E 004°52'0 0.1 25.8
2014-Jul-23 01:56N 37°50' E 004°52'214.9 25.8
2014-Jul-23 01:49N 37°51' E 004°53'0 0.0 25.8
2014-Jul-23 00:15N 37°51' E 004°53'0 0.0 25.9
2014-Jul-23 00:11N 37°51' E 004°53'0 0.0 25.9
2014-Jul-22 22:17N 37°51' E 004°53'1 5.7 26.0
2014-Jul-22 22:08N 37°52' E 004°53'0 0.0 26.0
2014-Jul-22 21:22N 37°52' E 004°53'1 7.5 26.1
2014-Jul-22 21:18N 37°53' E 004°53'0 0.0 26.1
2014-Jul-22 20:38N 37°53' E 004°53'1 4.6 26.2
2014-Jul-22 20:31N 37°52' E 004°53'110.8 26.2
2014-Jul-22 20:27N 37°53' E 004°53'0 0.6 26.2
2014-Jul-22 19:36N 37°54' E 004°53'0 0.6 26.3
2014-Jul-22 19:09N 37°54' E 004°53'1 3.4 26.3
2014-Jul-22 18:53N 37°55' E 004°52'0 0.0 26.4
2014-Jul-22 18:23N 37°55' E 004°52'0 0.0 26.5
2014-Jul-22 17:43N 37°55' E 004°52'0 0.0 26.6
2014-Jul-22 17:34N 37°55' E 004°52'0 0.0 26.6
2014-Jul-22 17:30N 37°55' E 004°52'0 2.8 26.6
2014-Jul-22 17:27N 37°55' E 004°52'0 0.7 26.7
2014-Jul-22 16:50N 37°55' E 004°52'1 0.8 26.8
2014-Jul-22 16:06N 37°55' E 004°52'1 1.1 26.8
2014-Jul-22 15:13N 37°56' E 004°51'0 0.0 26.7
2014-Jul-22 15:07N 37°56' E 004°51'0 0.5 26.7
2014-Jul-22 14:23N 37°56' E 004°51'0 2.2 26.6
2014-Jul-22 14:20N 37°56' E 004°51'1 1.0 26.6
2014-Jul-22 13:32N 37°56' E 004°50'1 0.6 26.5
2014-Jul-22 11:49N 37°57' E 004°50'0 0.0 26.4
2014-Jul-22 11:37N 37°57' E 004°50'0 0.0 26.3
2014-Jul-22 10:55N 37°57' E 004°50'0 0.0 26.4
2014-Jul-22 10:05N 37°57' E 004°50'0 0.0
2014-Jul-22 10:02N 37°57' E 004°50'0 4.7 26.3
2014-Jul-22 09:58N 37°58' E 004°50'0 0.0 26.3
2014-Jul-22 09:16N 37°58' E 004°50'0 0.9 26.2
2014-Jul-22 09:12N 37°58' E 004°50'0 0.2 26.0
2014-Jul-22 08:23N 37°58' E 004°50'1 8.8 25.8
2014-Jul-22 08:16N 37°59' E 004°50'0 0.0 25.8
2014-Jul-22 07:08N 37°59' E 004°50'0 2.7 25.4
2014-Jul-22 07:03N 37°59' E 004°50'0 4.9 25.4
2014-Jul-22 07:00N 37°59' E 004°50'1 0.8 25.4
2014-Jul-22 06:15N 37°59' E 004°50'0 0.5 25.4
2014-Jul-22 05:26N 37°59' E 004°51'0 0.0 25.4
2014-Jul-22 05:21N 37°59' E 004°51'1 0.7 25.4
2014-Jul-22 04:37N 37°60' E 004°50'0 0.6 25.4
2014-Jul-22 03:47N 38°00' E 004°50'0 3.1 25.4
2014-Jul-22 03:44N 38°00' E 004°51'1 8.4 25.5
2014-Jul-22 03:40N 38°01' E 004°50'0 0.6 25.5
2014-Jul-22 02:56N 38°01' E 004°50'234.4 25.5
2014-Jul-22 02:52N 38°03' E 004°51'0 0.0 25.5
2014-Jul-22 02:06N 38°03' E 004°51'0 0.0 25.5
2014-Jul-22 00:27N 38°03' E 004°51'247.0 25.6
2014-Jul-22 00:24N 38°05' E 004°49'0 0.0 25.6
2014-Jul-21 22:31N 38°05' E 004°49'1 0.9 25.7
2014-Jul-21 21:36N 38°06' E 004°49'0 0.0 25.7
2014-Jul-21 20:57N 38°06' E 004°49'1 5.7 25.7
2014-Jul-21 20:48N 38°06' E 004°48'0 0.0 25.7
2014-Jul-21 20:02N 38°06' E 004°48'110.3 25.8
2014-Jul-21 19:54N 38°07' E 004°47'1 0.2 25.8
2014-Jul-21 17:13N 38°07' E 004°46'0 0.0 26.0
2014-Jul-21 17:09N 38°07' E 004°46'1 0.9 26.0
2014-Jul-21 16:23N 38°08' E 004°46'0 0.0 26.0
2014-Jul-21 16:20N 38°08' E 004°46'0 1.8 26.0
2014-Jul-21 16:18N 38°08' E 004°46'0 0.6 26.0
2014-Jul-21 15:32N 38°08' E 004°46'0 2.1 26.0
2014-Jul-21 15:23N 38°08' E 004°46'0 0.3 26.0
2014-Jul-21 14:30N 38°08' E 004°46'0 0.1 25.9
2014-Jul-21 13:46N 38°08' E 004°46'1 0.4 25.9
2014-Jul-21 12:00N 38°09' E 004°46'1 1.4 25.7
2014-Jul-21 11:14N 38°10' E 004°46'0 0.4 25.6
2014-Jul-21 10:25N 38°10' E 004°46'0 0.0 25.5
2014-Jul-21 10:21N 38°10' E 004°46'0 7.7 25.5
2014-Jul-21 10:18N 38°11' E 004°45'0 0.1 25.5
2014-Jul-21 09:32N 38°11' E 004°45'1 1.8 25.4
2014-Jul-21 08:44N 38°12' E 004°44'216.9
2014-Jul-21 08:37N 38°13' E 004°46'0 0.0 25.2
2014-Jul-21 07:28N 38°13' E 004°46'0 0.0 25.1
2014-Jul-21 06:24N 38°13' E 004°46'0 0.0 25.1
2014-Jul-21 05:56N 38°13' E 004°46'0 0.0 25.1
2014-Jul-21 05:51N 38°13' E 004°46'0 0.0 25.1
2014-Jul-21 05:49N 38°13' E 004°46'1 1.3 25.1
2014-Jul-21 04:53N 38°14' E 004°45'0 0.9 25.1
2014-Jul-21 04:47N 38°14' E 004°45'111.0 25.1
2014-Jul-21 04:42N 38°15' E 004°44'0 0.0 25.1
2014-Jul-21 04:10N 38°15' E 004°44'1 4.2 25.1
2014-Jul-21 03:54N 38°16' E 004°43'0 0.1 25.1
2014-Jul-21 03:05N 38°16' E 004°43'0 0.0 25.1
2014-Jul-21 02:21N 38°16' E 004°43'0 3.5 25.1
2014-Jul-21 02:17N 38°16' E 004°44'2 1.2 25.1
2014-Jul-21 00:38N 38°17' E 004°42'222.7 25.1
2014-Jul-21 00:33N 38°18' E 004°40'0 0.0 25.1
2014-Jul-20 22:05N 38°18' E 004°40'1 1.1 25.1
2014-Jul-20 21:10N 38°18' E 004°39'0 0.0 25.1
2014-Jul-20 20:26N 38°18' E 004°39'210.9 25.1
2014-Jul-20 20:15N 38°20' E 004°38'0 0.0
2014-Jul-20 20:11N 38°20' E 004°38'0 0.1 25.2
2014-Jul-20 19:31N 38°20' E 004°38'0 0.0
2014-Jul-20 18:33N 38°20' E 004°38'0 0.0 25.2
2014-Jul-20 17:38N 38°20' E 004°38'0 0.0 25.2
2014-Jul-20 16:55N 38°20' E 004°38'1 1.7 25.2
2014-Jul-20 16:27N 38°21' E 004°38'0 0.0 25.2
2014-Jul-20 15:57N 38°21' E 004°38'0 0.0 25.2
2014-Jul-20 14:48N 38°21' E 004°38'1 0.9 25.2
2014-Jul-20 14:16N 38°21' E 004°38'0 0.0 25.2
2014-Jul-20 13:57N 38°21' E 004°38'1 1.4 25.2
2014-Jul-20 13:02N 38°23' E 004°38'0 0.0 25.2
2014-Jul-20 12:13N 38°23' E 004°38'0 7.1 25.1
2014-Jul-20 12:09N 38°23' E 004°39'1 1.0 25.1
2014-Jul-20 10:43N 38°24' E 004°37'1 1.7 25.1
2014-Jul-20 09:58N 38°24' E 004°39'0 0.0 25.1
2014-Jul-20 09:53N 38°24' E 004°39'5 5.5 25.1
2014-Jul-20 08:57N 38°27' E 004°34'0 0.0 25.1
2014-Jul-20 08:09N 38°27' E 004°34'0 0.1 25.1
2014-Jul-20 06:23N 38°27' E 004°34'3 2.1 25.1
2014-Jul-20 05:00N 38°29' E 004°31'0 0.0 25.2
2014-Jul-20 04:53N 38°29' E 004°31'0 0.0 25.2
2014-Jul-20 04:39N 38°29' E 004°31'0 0.0 25.2
2014-Jul-20 04:32N 38°29' E 004°31'0 0.0 25.2
2014-Jul-20 04:05N 38°29' E 004°31'0 0.0 25.2
2014-Jul-20 03:23N 38°29' E 004°31'0 4.1 25.2
2014-Jul-20 03:17N 38°29' E 004°31'2 0.9 25.2
2014-Jul-20 00:49N 38°29' E 004°28'0 1.3 25.3
2014-Jul-20 00:44N 38°29' E 004°28'1 0.6 25.3
2014-Jul-19 22:26N 38°29' E 004°27'1 5.8 25.4
2014-Jul-19 22:19N 38°29' E 004°26'0 0.0 25.4
2014-Jul-19 21:40N 38°29' E 004°26'0 0.0 25.4
2014-Jul-19 21:36N 38°29' E 004°26'0 0.5 25.4
2014-Jul-19 21:29N 38°29' E 004°26'0 0.0 25.4
2014-Jul-19 20:49N 38°29' E 004°26'0 0.0 25.4
2014-Jul-19 20:40N 38°29' E 004°26'1 9.8 25.4
2014-Jul-19 20:36N 38°29' E 004°25'0 0.4
2014-Jul-19 19:50N 38°29' E 004°25'0 0.0 25.5
2014-Jul-19 19:04N 38°29' E 004°25'0 0.0 25.5
2014-Jul-19 18:59N 38°29' E 004°25'0 0.3
2014-Jul-19 18:03N 38°29' E 004°25'0 0.0 25.7
2014-Jul-19 17:29N 38°29' E 004°25'1 6.5 25.7
2014-Jul-19 17:20N 38°29' E 004°24'1 2.2 25.7
2014-Jul-19 16:40N 38°30' E 004°23'0 0.0 25.7
2014-Jul-19 14:59N 38°30' E 004°23'0 1.4 25.6
2014-Jul-19 14:55N 38°30' E 004°24'110.4 25.6
2014-Jul-19 14:52N 38°30' E 004°23'1 0.7 25.6
2014-Jul-19 14:08N 38°30' E 004°24'2 1.9 25.5
2014-Jul-19 13:15N 38°31' E 004°22'1 0.9 25.4
2014-Jul-19 12:23N 38°31' E 004°21'0 0.0 25.2
2014-Jul-19 11:02N 38°31' E 004°21'1 1.7 25.1
2014-Jul-19 10:14N 38°32' E 004°19'0 0.1 25.1
2014-Jul-19 09:21N 38°32' E 004°19'1 1.5 25.0
2014-Jul-19 08:37N 38°32' E 004°18'115.1 24.9
2014-Jul-19 08:32N 38°32' E 004°16'0 0.0 24.9
2014-Jul-19 06:55N 38°32' E 004°16'1 9.3 24.9
2014-Jul-19 06:48N 38°32' E 004°15'0 0.0 24.9
2014-Jul-19 06:41N 38°32' E 004°15'0 0.0 24.9
2014-Jul-19 05:14N 38°32' E 004°15'0 8.1 24.9
2014-Jul-19 05:11N 38°32' E 004°14'0 1.5 24.9
2014-Jul-19 05:02N 38°31' E 004°15'2 2.1 24.9
2014-Jul-19 04:18N 38°32' E 004°13'0 0.0 24.9
2014-Jul-19 03:33N 38°32' E 004°13'0 5.5 24.9
2014-Jul-19 03:28N 38°32' E 004°12'2 9.4 24.9
2014-Jul-19 03:18N 38°31' E 004°12'0 0.7 24.9
2014-Jul-19 02:39N 38°31' E 004°11'2 0.9 24.9
2014-Jul-19 00:53N 38°31' E 004°10'0 0.0 24.9
2014-Jul-18 22:46N 38°31' E 004°10'0 0.0 25.0
2014-Jul-18 22:42N 38°31' E 004°10'0 0.4 25.0
2014-Jul-18 21:51N 38°31' E 004°09'0 0.0 25.0
2014-Jul-18 21:07N 38°31' E 004°09'110.6 25.1
2014-Jul-18 20:59N 38°31' E 004°07'0 0.0 25.1
2014-Jul-18 20:56N 38°31' E 004°07'1 0.7 25.1
2014-Jul-18 20:12N 38°31' E 004°07'0 0.7 25.1
2014-Jul-18 19:35N 38°30' E 004°07'0 0.0 25.1
2014-Jul-18 19:22N 38°30' E 004°07'112.7 25.1
2014-Jul-18 19:17N 38°30' E 004°06'0 0.1
2014-Jul-18 17:54N 38°30' E 004°06'1 0.5 25.1
2014-Jul-18 16:49N 38°30' E 004°05'116.2 25.1
2014-Jul-18 16:45N 38°30' E 004°04'0 0.0 25.1
2014-Jul-18 15:11N 38°30' E 004°04'0 0.0 25.1
2014-Jul-18 15:08N 38°30' E 004°04'1 0.9 25.1
2014-Jul-18 14:20N 38°30' E 004°03'1 0.9 25.1
2014-Jul-18 13:27N 38°29' E 004°02'1 1.2 25.1
2014-Jul-18 12:31N 38°29' E 004°01'0 0.0 25.1
2014-Jul-18 11:24N 38°29' E 004°01'0 0.0 25.0
2014-Jul-18 11:20N 38°29' E 004°01'0 0.4 25.0
2014-Jul-18 10:36N 38°29' E 004°01'2 2.6 25.0
2014-Jul-18 09:41N 38°29' E 003°58'0 0.0 24.9
2014-Jul-18 08:53N 38°29' E 003°58'0 0.0 24.9
2014-Jul-18 08:50N 38°29' E 003°58'0 0.0 35.9
2014-Jul-18 08:00N 38°29' E 003°58'0 0.0 24.9
2014-Jul-18 07:23N 38°29' E 003°58'0 0.0 24.9
2014-Jul-18 05:43N 38°29' E 003°58'0 1.0 24.9
2014-Jul-18 05:25N 38°29' E 003°58'0 0.0 24.9
2014-Jul-18 05:21N 38°29' E 003°58'1 1.0 24.9
2014-Jul-18 04:27N 38°28' E 003°57'0 0.0 24.9
2014-Jul-18 04:04N 38°28' E 003°57'1 2.6 24.9
2014-Jul-18 03:46N 38°29' E 003°56'0 0.0 24.9
2014-Jul-18 03:42N 38°29' E 003°56'0 0.2 24.9
2014-Jul-18 02:48N 38°29' E 003°56'3 2.2 24.9
2014-Jul-18 01:12N 38°28' E 003°51'0 0.0 25.0
2014-Jul-18 01:07N 38°28' E 003°51'0 0.0 25.0
2014-Jul-17 22:19N 38°28' E 003°51'0 0.0 25.1
2014-Jul-17 22:14N 38°28' E 003°51'1 1.4 25.1
2014-Jul-17 21:28N 38°27' E 003°51'1 4.4 25.1
2014-Jul-17 21:17N 38°26' E 003°50'0 0.0 25.1
2014-Jul-17 20:42N 38°26' E 003°50'1 3.8 25.1
2014-Jul-17 20:33N 38°26' E 003°50'0 0.4 25.1
2014-Jul-17 20:07N 38°26' E 003°49'1 0.8 25.2
2014-Jul-17 18:58N 38°25' E 003°50'0 0.0
2014-Jul-17 18:24N 38°25' E 003°50'0 0.1 25.2
2014-Jul-17 17:12N 38°25' E 003°50'0 0.0 25.4
2014-Jul-17 17:03N 38°25' E 003°50'0 0.0 25.4
2014-Jul-17 16:49N 38°25' E 003°50'1 9.2 25.4
2014-Jul-17 16:44N 38°25' E 003°49'0 0.2 25.4
2014-Jul-17 15:33N 38°25' E 003°49'0 0.0 25.5
2014-Jul-17 15:22N 38°25' E 003°49'0 0.0 25.5
2014-Jul-17 15:19N 38°25' E 003°49'0 0.4 25.5
2014-Jul-17 14:29N 38°25' E 003°49'1 1.0 25.5
2014-Jul-17 13:38N 38°25' E 003°48'0 0.0 25.4
2014-Jul-17 12:50N 38°25' E 003°48'0 0.0 25.3
2014-Jul-17 12:47N 38°25' E 003°48'0 5.6 25.3
2014-Jul-17 12:43N 38°25' E 003°48'0 0.0 25.2
2014-Jul-17 11:43N 38°25' E 003°48'1 1.8 25.1
2014-Jul-17 11:04N 38°25' E 003°46'0 0.6 25.0
2014-Jul-17 10:55N 38°25' E 003°46'1 1.0 25.0
2014-Jul-17 10:04N 38°25' E 003°45'1 1.3 24.9
2014-Jul-17 09:11N 38°25' E 003°44'0 0.1 24.9
2014-Jul-17 08:24N 38°25' E 003°44'122.1 24.8
2014-Jul-17 08:20N 38°24' E 003°42'0 0.0 24.8
2014-Jul-17 07:31N 38°24' E 003°42'0 0.0 24.8
2014-Jul-17 07:25N 38°24' E 003°42'0 0.0 24.8
2014-Jul-17 06:18N 38°24' E 003°42'0 1.0 24.8
2014-Jul-17 05:55N 38°24' E 003°42'0 4.0 24.8
2014-Jul-17 05:50N 38°24' E 003°42'0 1.5 24.8
2014-Jul-17 05:32N 38°24' E 003°42'112.8 24.8
2014-Jul-17 05:29N 38°24' E 003°41'1 0.6 24.8
2014-Jul-17 04:39N 38°23' E 003°41'1 6.3 24.8
2014-Jul-17 04:34N 38°24' E 003°41'1 1.3 24.8
2014-Jul-17 04:09N 38°23' E 003°41'1 1.9 24.8
2014-Jul-17 03:53N 38°23' E 003°41'1 0.7 24.8
2014-Jul-17 03:06N 38°23' E 003°41'0 0.9 24.8
2014-Jul-17 03:00N 38°23' E 003°41'112.1 24.8
2014-Jul-17 02:55N 38°22' E 003°40'0 0.0 24.8
2014-Jul-17 01:23N 38°22' E 003°40'0 0.0 24.8
2014-Jul-17 01:20N 38°22' E 003°40'1 0.4 24.8
2014-Jul-16 22:37N 38°21' E 003°40'0 0.0 24.8
2014-Jul-16 21:49N 38°21' E 003°40'1 6.1 24.9
2014-Jul-16 21:42N 38°21' E 003°39'0 0.0 24.9
2014-Jul-16 21:39N 38°21' E 003°39'0 0.0 24.9
2014-Jul-16 21:02N 38°21' E 003°39'0 0.0 24.9
2014-Jul-16 20:56N 38°21' E 003°39'0 0.0 24.9
2014-Jul-16 20:51N 38°21' E 003°39'0 1.3
2014-Jul-16 20:35N 38°21' E 003°38'0 0.3 24.9
2014-Jul-16 20:00N 38°21' E 003°38'0 0.0
2014-Jul-16 19:21N 38°21' E 003°38'0 0.0 25.0
2014-Jul-16 19:00N 38°21' E 003°38'1 1.2 25.0
2014-Jul-16 18:24N 38°20' E 003°38'0 0.0 25.1
2014-Jul-16 17:33N 38°20' E 003°38'1 3.2 25.1
2014-Jul-16 17:23N 38°21' E 003°37'1 6.3 25.1
2014-Jul-16 17:14N 38°20' E 003°36'0 0.0 25.1
2014-Jul-16 15:56N 38°20' E 003°36'0 0.0 25.2
2014-Jul-16 15:54N 38°20' E 003°36'0 0.0 25.2
2014-Jul-16 15:33N 38°20' E 003°36'1 1.3 25.2
2014-Jul-16 14:42N 38°20' E 003°35'0 0.0 25.2
2014-Jul-16 14:15N 38°20' E 003°35'0 0.0 25.1
2014-Jul-16 13:45N 38°20' E 003°35'0 0.0 25.1
2014-Jul-16 13:01N 38°20' E 003°35'1 0.4 25.1
2014-Jul-16 11:19N 38°20' E 003°34'223.6
2014-Jul-16 11:15N 38°19' E 003°33'0 0.0 24.9
2014-Jul-16 10:26N 38°19' E 003°33'0 0.0 24.8
2014-Jul-16 09:41N 38°19' E 003°33'0 0.0 24.7
2014-Jul-16 09:36N 38°19' E 003°33'0 0.0
2014-Jul-16 08:47N 38°19' E 003°33'1 5.0 24.7
2014-Jul-16 08:40N 38°18' E 003°33'0 0.0 24.7
2014-Jul-16 06:47N 38°18' E 003°33'1 2.0 24.6
2014-Jul-16 06:18N 38°18' E 003°31'0 0.0 24.6
2014-Jul-16 06:15N 38°18' E 003°31'0 0.2 24.6
2014-Jul-16 05:09N 38°18' E 003°32'0 0.0 24.6
2014-Jul-16 04:32N 38°18' E 003°32'0 1.3 24.7
2014-Jul-16 04:09N 38°17' E 003°32'1 8.0 24.7
2014-Jul-16 04:02N 38°17' E 003°32'0 0.0 24.7
2014-Jul-16 03:57N 38°17' E 003°32'0 0.0 24.7
2014-Jul-16 03:27N 38°17' E 003°32'0 0.0 24.7
2014-Jul-16 03:16N 38°17' E 003°32'0 0.0 24.7
2014-Jul-16 03:09N 38°17' E 003°32'120.8 24.7
2014-Jul-16 03:06N 38°17' E 003°31'0 0.4 24.7
2014-Jul-16 02:22N 38°17' E 003°31'0 0.0 24.7
2014-Jul-16 01:36N 38°17' E 003°31'0 0.0 24.7
2014-Jul-16 01:32N 38°17' E 003°31'1 0.4 24.7
2014-Jul-15 22:09N 38°15' E 003°31'1 8.0 24.8
2014-Jul-15 22:00N 38°15' E 003°30'0 0.6 24.8
2014-Jul-15 21:16N 38°15' E 003°30'0 2.3 24.8
2014-Jul-15 21:12N 38°15' E 003°30'0 0.0 24.8
2014-Jul-15 20:26N 38°15' E 003°30'1 8.9 24.8
2014-Jul-15 20:21N 38°14' E 003°30'0 0.0 24.8
2014-Jul-15 20:18N 38°14' E 003°30'0 0.0 24.8
2014-Jul-15 19:39N 38°14' E 003°30'0 0.0 24.8
2014-Jul-15 19:25N 38°14' E 003°30'0 0.0 24.8
2014-Jul-15 18:00N 38°14' E 003°30'0 0.0 24.9
2014-Jul-15 17:51N 38°14' E 003°30'111.6 24.9
2014-Jul-15 17:46N 38°14' E 003°30'1 2.9 24.9
2014-Jul-15 17:25N 38°14' E 003°29'0 0.0 24.9
2014-Jul-15 16:23N 38°14' E 003°29'0 0.5 24.9
2014-Jul-15 15:44N 38°14' E 003°29'1 0.6 24.9
2014-Jul-15 14:49N 38°14' E 003°29'0 0.0 24.9
2014-Jul-15 14:38N 38°14' E 003°29'0 0.0 24.9
2014-Jul-15 14:03N 38°14' E 003°29'0 0.0 24.9
2014-Jul-15 14:00N 38°14' E 003°29'0 0.4 24.8
2014-Jul-15 13:12N 38°13' E 003°29'0 0.0 24.8
2014-Jul-15 13:07N 38°13' E 003°29'1 0.8 24.8
2014-Jul-15 11:36N 38°12' E 003°29'0 0.0 24.8
2014-Jul-15 11:29N 38°12' E 003°29'121.8
2014-Jul-15 11:26N 38°12' E 003°28'0 0.0 24.8
2014-Jul-15 10:45N 38°12' E 003°28'0 0.5 24.7
2014-Jul-15 09:58N 38°12' E 003°28'1 0.7 24.7
2014-Jul-15 09:05N 38°12' E 003°28'2 1.9 24.7
2014-Jul-15 08:13N 38°10' E 003°29'0 0.0 24.7
2014-Jul-15 06:36N 38°10' E 003°29'1 0.9 24.7
2014-Jul-15 05:33N 38°10' E 003°27'0 0.0 24.7
2014-Jul-15 04:59N 38°10' E 003°27'0 0.5 24.7
2014-Jul-15 04:20N 38°10' E 003°28'0 0.0 24.7
2014-Jul-15 04:15N 38°10' E 003°28'0 0.0 24.7
2014-Jul-15 04:01N 38°10' E 003°28'2 2.1 24.7
2014-Jul-15 03:18N 38°09' E 003°29'0 0.0
2014-Jul-15 02:36N 38°09' E 003°29'0 0.1 24.7
2014-Jul-15 01:43N 38°09' E 003°29'1 0.3 24.7
2014-Jul-14 22:29N 38°08' E 003°30'1 1.0 24.8
2014-Jul-14 21:43N 38°08' E 003°31'0 1.7 24.9
2014-Jul-14 21:36N 38°08' E 003°31'112.8 24.9
2014-Jul-14 21:32N 38°08' E 003°32'0 0.0
2014-Jul-14 20:50N 38°08' E 003°32'1 6.5 24.9
2014-Jul-14 20:43N 38°08' E 003°31'0 0.0 24.9
2014-Jul-14 20:39N 38°08' E 003°31'0 0.5 24.9
2014-Jul-14 20:00N 38°07' E 003°31'0 3.6 25.0
2014-Jul-14 19:53N 38°07' E 003°31'0 0.0 24.9
2014-Jul-14 19:09N 38°07' E 003°31'0 0.3 25.0
2014-Jul-14 18:25N 38°07' E 003°31'0 0.0 25.1
2014-Jul-14 18:21N 38°07' E 003°31'1 0.7 25.1
2014-Jul-14 17:35N 38°06' E 003°31'0 0.5 25.1
2014-Jul-14 16:48N 38°06' E 003°31'0 5.6 25.1
2014-Jul-14 16:44N 38°06' E 003°31'0 0.4 25.1
2014-Jul-14 15:56N 38°06' E 003°31'0 0.5 25.1
2014-Jul-14 15:05N 38°06' E 003°31'215.0 25.1
2014-Jul-14 14:58N 38°04' E 003°30'0 0.0 25.1
2014-Jul-14 14:16N 38°04' E 003°30'1 9.3 25.1
2014-Jul-14 14:09N 38°05' E 003°31'0 0.5 25.1
2014-Jul-14 13:16N 38°04' E 003°32'1 0.7 25.1
2014-Jul-14 11:40N 38°03' E 003°33'1 4.5 25.1
2014-Jul-14 11:33N 38°03' E 003°33'0 0.0 25.1
2014-Jul-14 11:05N 38°03' E 003°33'2 2.0 25.0
2014-Jul-14 10:19N 38°02' E 003°35'1 0.6 24.9
2014-Jul-14 08:35N 38°02' E 003°36'0 0.0 24.7
2014-Jul-14 07:06N 38°02' E 003°36'0 0.0 24.6
2014-Jul-14 07:01N 38°02' E 003°36'0 0.0 24.6
2014-Jul-14 06:12N 38°02' E 003°36'1 4.3 24.6
2014-Jul-14 06:01N 38°01' E 003°37'0 0.0 24.6
2014-Jul-14 05:27N 38°01' E 003°37'0 0.0
2014-Jul-14 05:24N 38°01' E 003°37'0 0.0 24.6
2014-Jul-14 05:20N 38°01' E 003°37'0 0.2 24.6
2014-Jul-14 04:31N 38°01' E 003°37'0 0.7 24.6
2014-Jul-14 03:47N 38°02' E 003°36'0 4.9 24.6
2014-Jul-14 03:41N 38°01' E 003°37'0 0.7 24.7
2014-Jul-14 03:34N 38°02' E 003°37'0 5.2 24.7
2014-Jul-14 03:29N 38°01' E 003°37'0 0.0
2014-Jul-14 02:48N 38°01' E 003°37'0 4.5 24.7
2014-Jul-14 02:45N 38°01' E 003°37'1 1.3 24.7
2014-Jul-14 01:57N 38°01' E 003°36'0 5.2 24.7
2014-Jul-14 01:54N 38°01' E 003°36'216.9 24.7
2014-Jul-14 01:47N 38°00' E 003°38'1 0.4 24.7
2014-Jul-14 00:11N 38°01' E 003°38'2 1.7 24.7
2014-Jul-13 22:45N 37°59' E 003°40'0 0.0 24.7
2014-Jul-13 22:02N 37°59' E 003°40'0 2.4 24.8
2014-Jul-13 21:57N 37°59' E 003°40'0 0.0 24.8
2014-Jul-13 21:11N 37°59' E 003°40'322.1 24.8
2014-Jul-13 21:02N 37°57' E 003°43'0 0.0 24.8
2014-Jul-13 20:59N 37°57' E 003°43'0 0.0 24.8
2014-Jul-13 20:29N 37°57' E 003°43'0 0.0 24.8
2014-Jul-13 20:22N 37°57' E 003°43'0 0.0 24.8
2014-Jul-13 19:23N 37°57' E 003°43'0 0.0 24.8
2014-Jul-13 18:53N 37°57' E 003°43'0 0.0 24.8
2014-Jul-13 17:44N 37°57' E 003°43'0 0.0 24.9
2014-Jul-13 17:18N 37°57' E 003°43'0 0.0 24.9
2014-Jul-13 17:11N 37°57' E 003°43'0 0.0 24.9
2014-Jul-13 16:05N 37°57' E 003°43'0 0.0 24.9
2014-Jul-13 15:28N 37°57' E 003°43'0 1.4 24.9
2014-Jul-13 15:12N 37°58' E 003°43'1 1.6 24.9
2014-Jul-13 14:26N 37°57' E 003°44'0 0.0 24.9
2014-Jul-13 14:21N 37°57' E 003°44'0 0.4 24.9
2014-Jul-13 13:30N 37°57' E 003°44'2 1.0 24.8
2014-Jul-13 11:51N 37°57' E 003°47'0 0.0 24.7
2014-Jul-13 11:47N 37°57' E 003°47'0 0.3 24.8
2014-Jul-13 11:26N 37°57' E 003°46'1 0.7 24.8
2014-Jul-13 10:40N 37°56' E 003°46'1 1.6 24.7
2014-Jul-13 09:51N 37°56' E 003°48'0 3.5
2014-Jul-13 09:47N 37°56' E 003°48'1 1.0 24.7
2014-Jul-13 08:58N 37°56' E 003°49'   24.6
Track history (hours):
 
Tides and Currents Weather Stations Pressure Air Temp Water Temp Dewpoint Dewpoint Depression Visibility Wind Speed Wind Dir Waves Ship Positions

Drifting buoy 62910

Last reported at 2014-Jul-23 08:49 UTC. Time now 2014-Jul-23 09:54 UTC.
Position N 37°48' E 004°53'.

Water temperature 25.8 ° C

Date/timePositionNaut miles runAvg speedWind from/ knotsBaromVisibWave heightAir tempDewpointWater temp
2014-Jul-23 08:49N 37°48' E 004°53'0 0.0 25.8
2014-Jul-23 07:54N 37°48' E 004°53'0 0.0 25.7
2014-Jul-23 06:45N 37°48' E 004°53'0 0.0 25.7
2014-Jul-23 06:40N 37°48' E 004°53'0 1.7 25.7
2014-Jul-23 06:29N 37°48' E 004°53'1 2.0 25.7
2014-Jul-23 06:05N 37°49' E 004°53'0 0.0 25.7
2014-Jul-23 05:03N 37°49' E 004°53'0 0.7 25.7
2014-Jul-23 04:47N 37°49' E 004°53'0 0.9 25.7
2014-Jul-23 04:22N 37°49' E 004°53'0 0.1 25.8
2014-Jul-23 03:35N 37°49' E 004°53'0 0.3 25.8
2014-Jul-23 02:47N 37°49' E 004°53'1 8.4 25.8
2014-Jul-23 02:43N 37°50' E 004°52'0 0.1 25.8
2014-Jul-23 01:56N 37°50' E 004°52'214.9 25.8
2014-Jul-23 01:49N 37°51' E 004°53'0 0.0 25.8
2014-Jul-23 00:15N 37°51' E 004°53'0 0.0 25.9
2014-Jul-23 00:11N 37°51' E 004°53'0 0.0 25.9
2014-Jul-22 22:17N 37°51' E 004°53'1 5.7 26.0
2014-Jul-22 22:08N 37°52' E 004°53'0 0.0 26.0
2014-Jul-22 21:22N 37°52' E 004°53'1 7.5 26.1
2014-Jul-22 21:18N 37°53' E 004°53'0 0.0 26.1
2014-Jul-22 20:38N 37°53' E 004°53'1 4.6 26.2
2014-Jul-22 20:31N 37°52' E 004°53'110.8 26.2
2014-Jul-22 20:27N 37°53' E 004°53'0 0.6 26.2
2014-Jul-22 19:36N 37°54' E 004°53'0 0.6 26.3
2014-Jul-22 19:09N 37°54' E 004°53'1 3.4 26.3
2014-Jul-22 18:53N 37°55' E 004°52'0 0.0 26.4
2014-Jul-22 18:23N 37°55' E 004°52'0 0.0 26.5
2014-Jul-22 17:43N 37°55' E 004°52'0 0.0 26.6
2014-Jul-22 17:34N 37°55' E 004°52'0 0.0 26.6
2014-Jul-22 17:30N 37°55' E 004°52'0 2.8 26.6
2014-Jul-22 17:27N 37°55' E 004°52'0 0.7 26.7
2014-Jul-22 16:50N 37°55' E 004°52'1 0.8 26.8
2014-Jul-22 16:06N 37°55' E 004°52'1 1.1 26.8
2014-Jul-22 15:13N 37°56' E 004°51'0 0.0 26.7
2014-Jul-22 15:07N 37°56' E 004°51'0 0.5 26.7
2014-Jul-22 14:23N 37°56' E 004°51'0 2.2 26.6
2014-Jul-22 14:20N 37°56' E 004°51'1 1.0 26.6
2014-Jul-22 13:32N 37°56' E 004°50'1 0.6 26.5
2014-Jul-22 11:49N 37°57' E 004°50'0 0.0 26.4
2014-Jul-22 11:37N 37°57' E 004°50'0 0.0 26.3
2014-Jul-22 10:55N 37°57' E 004°50'0 0.0 26.4
2014-Jul-22 10:05N 37°57' E 004°50'0 0.0
2014-Jul-22 10:02N 37°57' E 004°50'0 4.7 26.3
2014-Jul-22 09:58N 37°58' E 004°50'0 0.0 26.3
2014-Jul-22 09:16N 37°58' E 004°50'0 0.9 26.2
2014-Jul-22 09:12N 37°58' E 004°50'0 0.2 26.0
2014-Jul-22 08:23N 37°58' E 004°50'1 8.8 25.8
2014-Jul-22 08:16N 37°59' E 004°50'0 0.0 25.8
2014-Jul-22 07:08N 37°59' E 004°50'0 2.7 25.4
2014-Jul-22 07:03N 37°59' E 004°50'0 4.9 25.4
2014-Jul-22 07:00N 37°59' E 004°50'1 0.8 25.4
2014-Jul-22 06:15N 37°59' E 004°50'0 0.5 25.4
2014-Jul-22 05:26N 37°59' E 004°51'0 0.0 25.4
2014-Jul-22 05:21N 37°59' E 004°51'1 0.7 25.4
2014-Jul-22 04:37N 37°60' E 004°50'0 0.6 25.4
2014-Jul-22 03:47N 38°00' E 004°50'0 3.1 25.4
2014-Jul-22 03:44N 38°00' E 004°51'1 8.4 25.5
2014-Jul-22 03:40N 38°01' E 004°50'0 0.6 25.5
2014-Jul-22 02:56N 38°01' E 004°50'234.4 25.5
2014-Jul-22 02:52N 38°03' E 004°51'0 0.0 25.5
2014-Jul-22 02:06N 38°03' E 004°51'0 0.0 25.5
2014-Jul-22 00:27N 38°03' E 004°51'247.0 25.6
2014-Jul-22 00:24N 38°05' E 004°49'0 0.0 25.6
2014-Jul-21 22:31N 38°05' E 004°49'1 0.9 25.7
2014-Jul-21 21:36N 38°06' E 004°49'0 0.0 25.7
2014-Jul-21 20:57N 38°06' E 004°49'1 5.7 25.7
2014-Jul-21 20:48N 38°06' E 004°48'0 0.0 25.7
2014-Jul-21 20:02N 38°06' E 004°48'110.3 25.8
2014-Jul-21 19:54N 38°07' E 004°47'1 0.2 25.8
2014-Jul-21 17:13N 38°07' E 004°46'0 0.0 26.0
2014-Jul-21 17:09N 38°07' E 004°46'1 0.9 26.0
2014-Jul-21 16:23N 38°08' E 004°46'0 0.0 26.0
2014-Jul-21 16:20N 38°08' E 004°46'0 1.8 26.0
2014-Jul-21 16:18N 38°08' E 004°46'0 0.6 26.0
2014-Jul-21 15:32N 38°08' E 004°46'0 2.1 26.0
2014-Jul-21 15:23N 38°08' E 004°46'0 0.3 26.0
2014-Jul-21 14:30N 38°08' E 004°46'0 0.1 25.9
2014-Jul-21 13:46N 38°08' E 004°46'1 0.4 25.9
2014-Jul-21 12:00N 38°09' E 004°46'1 1.4 25.7
2014-Jul-21 11:14N 38°10' E 004°46'0 0.4 25.6
2014-Jul-21 10:25N 38°10' E 004°46'0 0.0 25.5
2014-Jul-21 10:21N 38°10' E 004°46'0 7.7 25.5
2014-Jul-21 10:18N 38°11' E 004°45'0 0.1 25.5
2014-Jul-21 09:32N 38°11' E 004°45'1 1.8 25.4
2014-Jul-21 08:44N 38°12' E 004°44'216.9
2014-Jul-21 08:37N 38°13' E 004°46'0 0.0 25.2
2014-Jul-21 07:28N 38°13' E 004°46'0 0.0 25.1
2014-Jul-21 06:24N 38°13' E 004°46'0 0.0 25.1
2014-Jul-21 05:56N 38°13' E 004°46'0 0.0 25.1
2014-Jul-21 05:51N 38°13' E 004°46'0 0.0 25.1
2014-Jul-21 05:49N 38°13' E 004°46'1 1.3 25.1
2014-Jul-21 04:53N 38°14' E 004°45'0 0.9 25.1
2014-Jul-21 04:47N 38°14' E 004°45'111.0 25.1
2014-Jul-21 04:42N 38°15' E 004°44'0 0.0 25.1
2014-Jul-21 04:10N 38°15' E 004°44'1 4.2 25.1
2014-Jul-21 03:54N 38°16' E 004°43'0 0.1 25.1
2014-Jul-21 03:05N 38°16' E 004°43'0 0.0 25.1
2014-Jul-21 02:21N 38°16' E 004°43'0 3.5 25.1
2014-Jul-21 02:17N 38°16' E 004°44'2 1.2 25.1
2014-Jul-21 00:38N 38°17' E 004°42'222.7 25.1
2014-Jul-21 00:33N 38°18' E 004°40'0 0.0 25.1
2014-Jul-20 22:05N 38°18' E 004°40'1 1.1 25.1
2014-Jul-20 21:10N 38°18' E 004°39'0 0.0 25.1
2014-Jul-20 20:26N 38°18' E 004°39'210.9 25.1
2014-Jul-20 20:15N 38°20' E 004°38'0 0.0
2014-Jul-20 20:11N 38°20' E 004°38'0 0.1 25.2
2014-Jul-20 19:31N 38°20' E 004°38'0 0.0
2014-Jul-20 18:33N 38°20' E 004°38'0 0.0 25.2
2014-Jul-20 17:38N 38°20' E 004°38'0 0.0 25.2
2014-Jul-20 16:55N 38°20' E 004°38'1 1.7 25.2
2014-Jul-20 16:27N 38°21' E 004°38'0 0.0 25.2
2014-Jul-20 15:57N 38°21' E 004°38'0 0.0 25.2
2014-Jul-20 14:48N 38°21' E 004°38'1 0.9 25.2
2014-Jul-20 14:16N 38°21' E 004°38'0 0.0 25.2
2014-Jul-20 13:57N 38°21' E 004°38'1 1.4 25.2
2014-Jul-20 13:02N 38°23' E 004°38'0 0.0 25.2
2014-Jul-20 12:13N 38°23' E 004°38'0 7.1 25.1
2014-Jul-20 12:09N 38°23' E 004°39'1 1.0 25.1
2014-Jul-20 10:43N 38°24' E 004°37'1 1.7 25.1
2014-Jul-20 09:58N 38°24' E 004°39'0 0.0 25.1
2014-Jul-20 09:53N 38°24' E 004°39'5 5.5 25.1
2014-Jul-20 08:57N 38°27' E 004°34'0 0.0 25.1
2014-Jul-20 08:09N 38°27' E 004°34'0 0.1 25.1
2014-Jul-20 06:23N 38°27' E 004°34'3 2.1 25.1
2014-Jul-20 05:00N 38°29' E 004°31'0 0.0 25.2
2014-Jul-20 04:53N 38°29' E 004°31'0 0.0 25.2
2014-Jul-20 04:39N 38°29' E 004°31'0 0.0 25.2
2014-Jul-20 04:32N 38°29' E 004°31'0 0.0 25.2
2014-Jul-20 04:05N 38°29' E 004°31'0 0.0 25.2
2014-Jul-20 03:23N 38°29' E 004°31'0 4.1 25.2
2014-Jul-20 03:17N 38°29' E 004°31'2 0.9 25.2
2014-Jul-20 00:49N 38°29' E 004°28'0 1.3 25.3
2014-Jul-20 00:44N 38°29' E 004°28'1 0.6 25.3
2014-Jul-19 22:26N 38°29' E 004°27'1 5.8 25.4
2014-Jul-19 22:19N 38°29' E 004°26'0 0.0 25.4
2014-Jul-19 21:40N 38°29' E 004°26'0 0.0 25.4
2014-Jul-19 21:36N 38°29' E 004°26'0 0.5 25.4
2014-Jul-19 21:29N 38°29' E 004°26'0 0.0 25.4
2014-Jul-19 20:49N 38°29' E 004°26'0 0.0 25.4
2014-Jul-19 20:40N 38°29' E 004°26'1 9.8 25.4
2014-Jul-19 20:36N 38°29' E 004°25'0 0.4
2014-Jul-19 19:50N 38°29' E 004°25'0 0.0 25.5
2014-Jul-19 19:04N 38°29' E 004°25'0 0.0 25.5
2014-Jul-19 18:59N 38°29' E 004°25'0 0.3
2014-Jul-19 18:03N 38°29' E 004°25'0 0.0 25.7
2014-Jul-19 17:29N 38°29' E 004°25'1 6.5 25.7
2014-Jul-19 17:20N 38°29' E 004°24'1 2.2 25.7
2014-Jul-19 16:40N 38°30' E 004°23'0 0.0 25.7
2014-Jul-19 14:59N 38°30' E 004°23'0 1.4 25.6
2014-Jul-19 14:55N 38°30' E 004°24'110.4 25.6
2014-Jul-19 14:52N 38°30' E 004°23'1 0.7 25.6
2014-Jul-19 14:08N 38°30' E 004°24'2 1.9 25.5
2014-Jul-19 13:15N 38°31' E 004°22'1 0.9 25.4
2014-Jul-19 12:23N 38°31' E 004°21'0 0.0 25.2
2014-Jul-19 11:02N 38°31' E 004°21'1 1.7 25.1
2014-Jul-19 10:14N 38°32' E 004°19'0 0.1 25.1
2014-Jul-19 09:21N 38°32' E 004°19'1 1.5 25.0
2014-Jul-19 08:37N 38°32' E 004°18'115.1 24.9
2014-Jul-19 08:32N 38°32' E 004°16'0 0.0 24.9
2014-Jul-19 06:55N 38°32' E 004°16'1 9.3 24.9
2014-Jul-19 06:48N 38°32' E 004°15'0 0.0 24.9
2014-Jul-19 06:41N 38°32' E 004°15'0 0.0 24.9
2014-Jul-19 05:14N 38°32' E 004°15'0 8.1 24.9
2014-Jul-19 05:11N 38°32' E 004°14'0 1.5 24.9
2014-Jul-19 05:02N 38°31' E 004°15'2 2.1 24.9
2014-Jul-19 04:18N 38°32' E 004°13'0 0.0 24.9
2014-Jul-19 03:33N 38°32' E 004°13'0 5.5 24.9
2014-Jul-19 03:28N 38°32' E 004°12'2 9.4 24.9
2014-Jul-19 03:18N 38°31' E 004°12'0 0.7 24.9
2014-Jul-19 02:39N 38°31' E 004°11'2 0.9 24.9
2014-Jul-19 00:53N 38°31' E 004°10'0 0.0 24.9
2014-Jul-18 22:46N 38°31' E 004°10'0 0.0 25.0
2014-Jul-18 22:42N 38°31' E 004°10'0 0.4 25.0
2014-Jul-18 21:51N 38°31' E 004°09'0 0.0 25.0
2014-Jul-18 21:07N 38°31' E 004°09'110.6 25.1
2014-Jul-18 20:59N 38°31' E 004°07'0 0.0 25.1
2014-Jul-18 20:56N 38°31' E 004°07'1 0.7 25.1
2014-Jul-18 20:12N 38°31' E 004°07'0 0.7 25.1
2014-Jul-18 19:35N 38°30' E 004°07'0 0.0 25.1
2014-Jul-18 19:22N 38°30' E 004°07'112.7 25.1
2014-Jul-18 19:17N 38°30' E 004°06'0 0.1
2014-Jul-18 17:54N 38°30' E 004°06'1 0.5 25.1
2014-Jul-18 16:49N 38°30' E 004°05'116.2 25.1
2014-Jul-18 16:45N 38°30' E 004°04'0 0.0 25.1
2014-Jul-18 15:11N 38°30' E 004°04'0 0.0 25.1
2014-Jul-18 15:08N 38°30' E 004°04'1 0.9 25.1
2014-Jul-18 14:20N 38°30' E 004°03'1 0.9 25.1
2014-Jul-18 13:27N 38°29' E 004°02'1 1.2 25.1
2014-Jul-18 12:31N 38°29' E 004°01'0 0.0 25.1
2014-Jul-18 11:24N 38°29' E 004°01'0 0.0 25.0
2014-Jul-18 11:20N 38°29' E 004°01'0 0.4 25.0
2014-Jul-18 10:36N 38°29' E 004°01'2 2.6 25.0
2014-Jul-18 09:41N 38°29' E 003°58'0 0.0 24.9
2014-Jul-18 08:53N 38°29' E 003°58'0 0.0 24.9
2014-Jul-18 08:50N 38°29' E 003°58'0 0.0 35.9
2014-Jul-18 08:00N 38°29' E 003°58'0 0.0 24.9
2014-Jul-18 07:23N 38°29' E 003°58'0 0.0 24.9
2014-Jul-18 05:43N 38°29' E 003°58'0 1.0 24.9
2014-Jul-18 05:25N 38°29' E 003°58'0 0.0 24.9
2014-Jul-18 05:21N 38°29' E 003°58'1 1.0 24.9
2014-Jul-18 04:27N 38°28' E 003°57'0 0.0 24.9
2014-Jul-18 04:04N 38°28' E 003°57'1 2.6 24.9
2014-Jul-18 03:46N 38°29' E 003°56'0 0.0 24.9
2014-Jul-18 03:42N 38°29' E 003°56'0 0.2 24.9
2014-Jul-18 02:48N 38°29' E 003°56'3 2.2 24.9
2014-Jul-18 01:12N 38°28' E 003°51'0 0.0 25.0
2014-Jul-18 01:07N 38°28' E 003°51'0 0.0 25.0
2014-Jul-17 22:19N 38°28' E 003°51'0 0.0 25.1
2014-Jul-17 22:14N 38°28' E 003°51'1 1.4 25.1
2014-Jul-17 21:28N 38°27' E 003°51'1 4.4 25.1
2014-Jul-17 21:17N 38°26' E 003°50'0 0.0 25.1
2014-Jul-17 20:42N 38°26' E 003°50'1 3.8 25.1
2014-Jul-17 20:33N 38°26' E 003°50'0 0.4 25.1
2014-Jul-17 20:07N 38°26' E 003°49'1 0.8 25.2
2014-Jul-17 18:58N 38°25' E 003°50'0 0.0
2014-Jul-17 18:24N 38°25' E 003°50'0 0.1 25.2
2014-Jul-17 17:12N 38°25' E 003°50'0 0.0 25.4
2014-Jul-17 17:03N 38°25' E 003°50'0 0.0 25.4
2014-Jul-17 16:49N 38°25' E 003°50'1 9.2 25.4
2014-Jul-17 16:44N 38°25' E 003°49'0 0.2 25.4
2014-Jul-17 15:33N 38°25' E 003°49'0 0.0 25.5
2014-Jul-17 15:22N 38°25' E 003°49'0 0.0 25.5
2014-Jul-17 15:19N 38°25' E 003°49'0 0.4 25.5
2014-Jul-17 14:29N 38°25' E 003°49'1 1.0 25.5
2014-Jul-17 13:38N 38°25' E 003°48'0 0.0 25.4
2014-Jul-17 12:50N 38°25' E 003°48'0 0.0 25.3
2014-Jul-17 12:47N 38°25' E 003°48'0 5.6 25.3
2014-Jul-17 12:43N 38°25' E 003°48'0 0.0 25.2
2014-Jul-17 11:43N 38°25' E 003°48'1 1.8 25.1
2014-Jul-17 11:04N 38°25' E 003°46'0 0.6 25.0
2014-Jul-17 10:55N 38°25' E 003°46'1 1.0 25.0
2014-Jul-17 10:04N 38°25' E 003°45'1 1.3 24.9
2014-Jul-17 09:11N 38°25' E 003°44'0 0.1 24.9
2014-Jul-17 08:24N 38°25' E 003°44'122.1 24.8
2014-Jul-17 08:20N 38°24' E 003°42'0 0.0 24.8
2014-Jul-17 07:31N 38°24' E 003°42'0 0.0 24.8
2014-Jul-17 07:25N 38°24' E 003°42'0 0.0 24.8
2014-Jul-17 06:18N 38°24' E 003°42'0 1.0 24.8
2014-Jul-17 05:55N 38°24' E 003°42'0 4.0 24.8
2014-Jul-17 05:50N 38°24' E 003°42'0 1.5 24.8
2014-Jul-17 05:32N 38°24' E 003°42'112.8 24.8
2014-Jul-17 05:29N 38°24' E 003°41'1 0.6 24.8
2014-Jul-17 04:39N 38°23' E 003°41'1 6.3 24.8
2014-Jul-17 04:34N 38°24' E 003°41'1 1.3 24.8
2014-Jul-17 04:09N 38°23' E 003°41'1 1.9 24.8
2014-Jul-17 03:53N 38°23' E 003°41'1 0.7 24.8
2014-Jul-17 03:06N 38°23' E 003°41'0 0.9 24.8
2014-Jul-17 03:00N 38°23' E 003°41'112.1 24.8
2014-Jul-17 02:55N 38°22' E 003°40'0 0.0 24.8
2014-Jul-17 01:23N 38°22' E 003°40'0 0.0 24.8
2014-Jul-17 01:20N 38°22' E 003°40'1 0.4 24.8
2014-Jul-16 22:37N 38°21' E 003°40'0 0.0 24.8
2014-Jul-16 21:49N 38°21' E 003°40'1 6.1 24.9
2014-Jul-16 21:42N 38°21' E 003°39'0 0.0 24.9
2014-Jul-16 21:39N 38°21' E 003°39'0 0.0 24.9
2014-Jul-16 21:02N 38°21' E 003°39'0 0.0 24.9
2014-Jul-16 20:56N 38°21' E 003°39'0 0.0 24.9
2014-Jul-16 20:51N 38°21' E 003°39'0 1.3
2014-Jul-16 20:35N 38°21' E 003°38'0 0.3 24.9
2014-Jul-16 20:00N 38°21' E 003°38'0 0.0
2014-Jul-16 19:21N 38°21' E 003°38'0 0.0 25.0
2014-Jul-16 19:00N 38°21' E 003°38'1 1.2 25.0
2014-Jul-16 18:24N 38°20' E 003°38'0 0.0 25.1
2014-Jul-16 17:33N 38°20' E 003°38'1 3.2 25.1
2014-Jul-16 17:23N 38°21' E 003°37'1 6.3 25.1
2014-Jul-16 17:14N 38°20' E 003°36'0 0.0 25.1
2014-Jul-16 15:56N 38°20' E 003°36'0 0.0 25.2
2014-Jul-16 15:54N 38°20' E 003°36'0 0.0 25.2
2014-Jul-16 15:33N 38°20' E 003°36'1 1.3 25.2
2014-Jul-16 14:42N 38°20' E 003°35'0 0.0 25.2
2014-Jul-16 14:15N 38°20' E 003°35'0 0.0 25.1
2014-Jul-16 13:45N 38°20' E 003°35'0 0.0 25.1
2014-Jul-16 13:01N 38°20' E 003°35'1 0.4 25.1
2014-Jul-16 11:19N 38°20' E 003°34'223.6
2014-Jul-16 11:15N 38°19' E 003°33'0 0.0 24.9
2014-Jul-16 10:26N 38°19' E 003°33'0 0.0 24.8
2014-Jul-16 09:41N 38°19' E 003°33'0 0.0 24.7
2014-Jul-16 09:36N 38°19' E 003°33'0 0.0
2014-Jul-16 08:47N 38°19' E 003°33'1 5.0 24.7
2014-Jul-16 08:40N 38°18' E 003°33'0 0.0 24.7
2014-Jul-16 06:47N 38°18' E 003°33'1 2.0 24.6
2014-Jul-16 06:18N 38°18' E 003°31'0 0.0 24.6
2014-Jul-16 06:15N 38°18' E 003°31'0 0.2 24.6
2014-Jul-16 05:09N 38°18' E 003°32'0 0.0 24.6
2014-Jul-16 04:32N 38°18' E 003°32'0 1.3 24.7
2014-Jul-16 04:09N 38°17' E 003°32'1 8.0 24.7
2014-Jul-16 04:02N 38°17' E 003°32'0 0.0 24.7
2014-Jul-16 03:57N 38°17' E 003°32'0 0.0 24.7
2014-Jul-16 03:27N 38°17' E 003°32'0 0.0 24.7
2014-Jul-16 03:16N 38°17' E 003°32'0 0.0 24.7
2014-Jul-16 03:09N 38°17' E 003°32'120.8 24.7
2014-Jul-16 03:06N 38°17' E 003°31'0 0.4 24.7
2014-Jul-16 02:22N 38°17' E 003°31'0 0.0 24.7
2014-Jul-16 01:36N 38°17' E 003°31'0 0.0 24.7
2014-Jul-16 01:32N 38°17' E 003°31'1 0.4 24.7
2014-Jul-15 22:09N 38°15' E 003°31'1 8.0 24.8
2014-Jul-15 22:00N 38°15' E 003°30'0 0.6 24.8
2014-Jul-15 21:16N 38°15' E 003°30'0 2.3 24.8
2014-Jul-15 21:12N 38°15' E 003°30'0 0.0 24.8
2014-Jul-15 20:26N 38°15' E 003°30'1 8.9 24.8
2014-Jul-15 20:21N 38°14' E 003°30'0 0.0 24.8
2014-Jul-15 20:18N 38°14' E 003°30'0 0.0 24.8
2014-Jul-15 19:39N 38°14' E 003°30'0 0.0 24.8
2014-Jul-15 19:25N 38°14' E 003°30'0 0.0 24.8
2014-Jul-15 18:00N 38°14' E 003°30'0 0.0 24.9
2014-Jul-15 17:51N 38°14' E 003°30'111.6 24.9
2014-Jul-15 17:46N 38°14' E 003°30'1 2.9 24.9
2014-Jul-15 17:25N 38°14' E 003°29'0 0.0 24.9
2014-Jul-15 16:23N 38°14' E 003°29'0 0.5 24.9
2014-Jul-15 15:44N 38°14' E 003°29'1 0.6 24.9
2014-Jul-15 14:49N 38°14' E 003°29'0 0.0 24.9
2014-Jul-15 14:38N 38°14' E 003°29'0 0.0 24.9
2014-Jul-15 14:03N 38°14' E 003°29'0 0.0 24.9
2014-Jul-15 14:00N 38°14' E 003°29'0 0.4 24.8
2014-Jul-15 13:12N 38°13' E 003°29'0 0.0 24.8
2014-Jul-15 13:07N 38°13' E 003°29'1 0.8 24.8
2014-Jul-15 11:36N 38°12' E 003°29'0 0.0 24.8
2014-Jul-15 11:29N 38°12' E 003°29'121.8
2014-Jul-15 11:26N 38°12' E 003°28'0 0.0 24.8
2014-Jul-15 10:45N 38°12' E 003°28'0 0.5 24.7
2014-Jul-15 09:58N 38°12' E 003°28'1 0.7 24.7
2014-Jul-15 09:05N 38°12' E 003°28'2 1.9 24.7
2014-Jul-15 08:13N 38°10' E 003°29'0 0.0 24.7
2014-Jul-15 06:36N 38°10' E 003°29'1 0.9 24.7
2014-Jul-15 05:33N 38°10' E 003°27'0 0.0 24.7
2014-Jul-15 04:59N 38°10' E 003°27'0 0.5 24.7
2014-Jul-15 04:20N 38°10' E 003°28'0 0.0 24.7
2014-Jul-15 04:15N 38°10' E 003°28'0 0.0 24.7
2014-Jul-15 04:01N 38°10' E 003°28'2 2.1 24.7
2014-Jul-15 03:18N 38°09' E 003°29'0 0.0
2014-Jul-15 02:36N 38°09' E 003°29'0 0.1 24.7
2014-Jul-15 01:43N 38°09' E 003°29'1 0.3 24.7
2014-Jul-14 22:29N 38°08' E 003°30'1 1.0 24.8
2014-Jul-14 21:43N 38°08' E 003°31'0 1.7 24.9
2014-Jul-14 21:36N 38°08' E 003°31'112.8 24.9
2014-Jul-14 21:32N 38°08' E 003°32'0 0.0
2014-Jul-14 20:50N 38°08' E 003°32'1 6.5 24.9
2014-Jul-14 20:43N 38°08' E 003°31'0 0.0 24.9
2014-Jul-14 20:39N 38°08' E 003°31'0 0.5 24.9
2014-Jul-14 20:00N 38°07' E 003°31'0 3.6 25.0
2014-Jul-14 19:53N 38°07' E 003°31'0 0.0 24.9
2014-Jul-14 19:09N 38°07' E 003°31'0 0.3 25.0
2014-Jul-14 18:25N 38°07' E 003°31'0 0.0 25.1
2014-Jul-14 18:21N 38°07' E 003°31'1 0.7 25.1
2014-Jul-14 17:35N 38°06' E 003°31'0 0.5 25.1
2014-Jul-14 16:48N 38°06' E 003°31'0 5.6 25.1
2014-Jul-14 16:44N 38°06' E 003°31'0 0.4 25.1
2014-Jul-14 15:56N 38°06' E 003°31'0 0.5 25.1
2014-Jul-14 15:05N 38°06' E 003°31'215.0 25.1
2014-Jul-14 14:58N 38°04' E 003°30'0 0.0 25.1
2014-Jul-14 14:16N 38°04' E 003°30'1 9.3 25.1
2014-Jul-14 14:09N 38°05' E 003°31'0 0.5 25.1
2014-Jul-14 13:16N 38°04' E 003°32'1 0.7 25.1
2014-Jul-14 11:40N 38°03' E 003°33'1 4.5 25.1
2014-Jul-14 11:33N 38°03' E 003°33'0 0.0 25.1
2014-Jul-14 11:05N 38°03' E 003°33'2 2.0 25.0
2014-Jul-14 10:19N 38°02' E 003°35'1 0.6 24.9
2014-Jul-14 08:35N 38°02' E 003°36'0 0.0 24.7
2014-Jul-14 07:06N 38°02' E 003°36'0 0.0 24.6
2014-Jul-14 07:01N 38°02' E 003°36'0 0.0 24.6
2014-Jul-14 06:12N 38°02' E 003°36'1 4.3 24.6
2014-Jul-14 06:01N 38°01' E 003°37'0 0.0 24.6
2014-Jul-14 05:27N 38°01' E 003°37'0 0.0
2014-Jul-14 05:24N 38°01' E 003°37'0 0.0 24.6
2014-Jul-14 05:20N 38°01' E 003°37'0 0.2 24.6
2014-Jul-14 04:31N 38°01' E 003°37'0 0.7 24.6
2014-Jul-14 03:47N 38°02' E 003°36'0 4.9 24.6
2014-Jul-14 03:41N 38°01' E 003°37'0 0.7 24.7
2014-Jul-14 03:34N 38°02' E 003°37'0 5.2 24.7
2014-Jul-14 03:29N 38°01' E 003°37'0 0.0
2014-Jul-14 02:48N 38°01' E 003°37'0 4.5 24.7
2014-Jul-14 02:45N 38°01' E 003°37'1 1.3 24.7
2014-Jul-14 01:57N 38°01' E 003°36'0 5.2 24.7
2014-Jul-14 01:54N 38°01' E 003°36'216.9 24.7
2014-Jul-14 01:47N 38°00' E 003°38'1 0.4 24.7
2014-Jul-14 00:11N 38°01' E 003°38'2 1.7 24.7
2014-Jul-13 22:45N 37°59' E 003°40'0 0.0 24.7
2014-Jul-13 22:02N 37°59' E 003°40'0 2.4 24.8
2014-Jul-13 21:57N 37°59' E 003°40'0 0.0 24.8
2014-Jul-13 21:11N 37°59' E 003°40'322.1 24.8
2014-Jul-13 21:02N 37°57' E 003°43'0 0.0 24.8
2014-Jul-13 20:59N 37°57' E 003°43'0 0.0 24.8
2014-Jul-13 20:29N 37°57' E 003°43'0 0.0 24.8
2014-Jul-13 20:22N 37°57' E 003°43'0 0.0 24.8
2014-Jul-13 19:23N 37°57' E 003°43'0 0.0 24.8
2014-Jul-13 18:53N 37°57' E 003°43'0 0.0 24.8
2014-Jul-13 17:44N 37°57' E 003°43'0 0.0 24.9
2014-Jul-13 17:18N 37°57' E 003°43'0 0.0 24.9
2014-Jul-13 17:11N 37°57' E 003°43'0 0.0 24.9
2014-Jul-13 16:05N 37°57' E 003°43'0 0.0 24.9
2014-Jul-13 15:28N 37°57' E 003°43'0 1.4 24.9
2014-Jul-13 15:12N 37°58' E 003°43'1 1.6 24.9
2014-Jul-13 14:26N 37°57' E 003°44'0 0.0 24.9
2014-Jul-13 14:21N 37°57' E 003°44'0 0.4 24.9
2014-Jul-13 13:30N 37°57' E 003°44'2 1.0 24.8
2014-Jul-13 11:51N 37°57' E 003°47'0 0.0 24.7
2014-Jul-13 11:47N 37°57' E 003°47'0 0.3 24.8
2014-Jul-13 11:26N 37°57' E 003°46'1 0.7 24.8
2014-Jul-13 10:40N 37°56' E 003°46'1 1.6 24.7
2014-Jul-13 09:51N 37°56' E 003°48'0 3.5
2014-Jul-13 09:47N 37°56' E 003°48'1 1.0 24.7
2014-Jul-13 08:58N 37°56' E 003°49'   24.6

Dump ship's entire track history